La Tuna Canyon, California
Current Conditions -  °F | °C
As of 3:53 AM on Saturday 01 Nov 2014 (Local Time) from KBUR Reporting Station
Broken Clouds Broken Clouds  
Wind Chill: 57°   Ceiling: 4900
Heat Index: 57°   Visibility: 10mi
Dew Point: 53°   Wind: 3mph
Humidity: 87%   Direction: 330°NNW
Pressure: 29.86"   Gusts: NA
Location:  34.2294°N, 118.357°W
Report Text: KBUR 011053Z 33003KT 10SM FEW026 BKN049 BKN055 14/12 A2986 RMK AO2 SLP103 T01390117
Loading
Personal Weather Stations






























Interactive Weather Map
Tropical Storm Tracking
New forecast layout! Learn more

10-Day Weather Forecast

Advertisements
Track Severe Weather on mobile